sensor_id;sensor_type;location;lat;lon;timestamp;pressure;altitude;pressure_sealevel;temperature;humidity
60854;BME280;48554;50.766;2.900;2022-07-29T00:01:14;101086.31;;;23.39;42.28
60854;BME280;48554;50.766;2.900;2022-07-29T00:03:34;101089.56;;;23.36;42.27
60854;BME280;48554;50.766;2.900;2022-07-29T00:05:54;101079.25;;;23.38;42.36
60854;BME280;48554;50.766;2.900;2022-07-29T00:08:15;101078.47;;;23.38;42.16
60854;BME280;48554;50.766;2.900;2022-07-29T00:10:35;101076.84;;;23.37;42.04
60854;BME280;48554;50.766;2.900;2022-07-29T00:12:55;101073.34;;;23.36;42.21
60854;BME280;48554;50.766;2.900;2022-07-29T00:15:15;101076.06;;;23.36;42.21
60854;BME280;48554;50.766;2.900;2022-07-29T00:17:36;101078.22;;;23.34;42.33
60854;BME280;48554;50.766;2.900;2022-07-29T00:19:56;101070.66;;;23.31;42.29
60854;BME280;48554;50.766;2.900;2022-07-29T00:22:16;101066.59;;;23.34;42.40
60854;BME280;48554;50.766;2.900;2022-07-29T00:24:36;101069.56;;;23.32;42.35
60854;BME280;48554;50.766;2.900;2022-07-29T00:26:57;101062.03;;;23.29;42.18
60854;BME280;48554;50.766;2.900;2022-07-29T00:29:17;101067.94;;;23.31;42.17
60854;BME280;48554;50.766;2.900;2022-07-29T00:31:37;101066.09;;;23.26;42.24
60854;BME280;48554;50.766;2.900;2022-07-29T00:33:58;101065.53;;;23.29;42.03
60854;BME280;48554;50.766;2.900;2022-07-29T00:36:18;101067.72;;;23.27;42.50
60854;BME280;48554;50.766;2.900;2022-07-29T00:38:38;101058.78;;;23.27;42.17
60854;BME280;48554;50.766;2.900;2022-07-29T00:40:58;101059.59;;;23.27;42.39
60854;BME280;48554;50.766;2.900;2022-07-29T00:43:19;101057.69;;;23.28;42.05
60854;BME280;48554;50.766;2.900;2022-07-29T00:45:40;101054.47;;;23.26;42.46
60854;BME280;48554;50.766;2.900;2022-07-29T00:48:01;101048.53;;;23.24;42.29
60854;BME280;48554;50.766;2.900;2022-07-29T00:50:22;101051.75;;;23.26;42.18
60854;BME280;48554;50.766;2.900;2022-07-29T00:52:43;101050.16;;;23.25;42.16
60854;BME280;48554;50.766;2.900;2022-07-29T00:55:05;101043.66;;;23.26;42.29
60854;BME280;48554;50.766;2.900;2022-07-29T00:57:26;101042.03;;;23.25;42.20
60854;BME280;48554;50.766;2.900;2022-07-29T00:59:46;101042.03;;;23.25;42.55
60854;BME280;48554;50.766;2.900;2022-07-29T01:02:07;101041.25;;;23.24;42.38
60854;BME280;48554;50.766;2.900;2022-07-29T01:04:27;101048.81;;;23.22;42.19
60854;BME280;48554;50.766;2.900;2022-07-29T01:06:48;101043.69;;;23.21;42.49
60854;BME280;48554;50.766;2.900;2022-07-29T01:09:09;101037.50;;;23.15;42.11
60854;BME280;48554;50.766;2.900;2022-07-29T01:11:29;101038.28;;;23.16;42.45
60854;BME280;48554;50.766;2.900;2022-07-29T01:13:49;101034.25;;;23.13;42.56
60854;BME280;48554;50.766;2.900;2022-07-29T01:16:14;101035.34;;;23.12;42.48
60854;BME280;48554;50.766;2.900;2022-07-29T01:18:39;101033.47;;;23.13;42.52
60854;BME280;48554;50.766;2.900;2022-07-29T01:26:45;101028.88;;;23.08;42.46
60854;BME280;48554;50.766;2.900;2022-07-29T01:29:12;101032.94;;;23.05;42.54
60854;BME280;48554;50.766;2.900;2022-07-29T01:34:07;101034.03;;;23.10;42.38
60854;BME280;48554;50.766;2.900;2022-07-29T01:36:47;101030.78;;;23.07;42.54
60854;BME280;48554;50.766;2.900;2022-07-29T01:39:11;101026.75;;;23.05;42.74
60854;BME280;48554;50.766;2.900;2022-07-29T01:41:34;101026.19;;;23.03;42.76
60854;BME280;48554;50.766;2.900;2022-07-29T01:43:59;101022.97;;;23.01;42.70
60854;BME280;48554;50.766;2.900;2022-07-29T01:46:33;101028.09;;;23.02;42.79
60854;BME280;48554;50.766;2.900;2022-07-29T01:49:02;101024.06;;;23.00;42.74
60854;BME280;48554;50.766;2.900;2022-07-29T01:51:42;101029.72;;;22.98;42.76
60854;BME280;48554;50.766;2.900;2022-07-29T01:54:12;101027.28;;;23.02;42.88
60854;BME280;48554;50.766;2.900;2022-07-29T01:56:36;101030.28;;;23.00;42.96
60854;BME280;48554;50.766;2.900;2022-07-29T01:59:00;101028.38;;;22.96;43.01
60854;BME280;48554;50.766;2.900;2022-07-29T02:01:22;101026.50;;;22.91;42.86
60854;BME280;48554;50.766;2.900;2022-07-29T02:03:45;101021.34;;;22.95;42.73
60854;BME280;48554;50.766;2.900;2022-07-29T02:06:07;101015.94;;;22.95;42.70
60854;BME280;48554;50.766;2.900;2022-07-29T02:08:28;101019.72;;;22.94;42.90
60854;BME280;48554;50.766;2.900;2022-07-29T02:10:49;101021.63;;;22.98;42.82
60854;BME280;48554;50.766;2.900;2022-07-29T02:13:12;101028.38;;;22.96;42.65
60854;BME280;48554;50.766;2.900;2022-07-29T02:15:34;101029.72;;;22.93;43.00
60854;BME280;48554;50.766;2.900;2022-07-29T02:17:59;101021.09;;;22.91;43.05
60854;BME280;48554;50.766;2.900;2022-07-29T02:20:22;101031.34;;;22.94;42.92
60854;BME280;48554;50.766;2.900;2022-07-29T02:22:44;101027.56;;;22.95;42.84
60854;BME280;48554;50.766;2.900;2022-07-29T02:25:07;101028.63;;;22.94;42.93
60854;BME280;48554;50.766;2.900;2022-07-29T02:27:28;101028.09;;;22.92;43.07
60854;BME280;48554;50.766;2.900;2022-07-29T02:29:50;101025.13;;;22.94;42.89
60854;BME280;48554;50.766;2.900;2022-07-29T02:32:13;101028.94;;;22.93;42.91
60854;BME280;48554;50.766;2.900;2022-07-29T02:34:35;101028.66;;;22.89;42.97
60854;BME280;48554;50.766;2.900;2022-07-29T02:36:58;101030.53;;;22.94;43.00
60854;BME280;48554;50.766;2.900;2022-07-29T02:39:19;101028.09;;;22.92;42.88
60854;BME280;48554;50.766;2.900;2022-07-29T02:41:43;101032.44;;;22.93;43.01
60854;BME280;48554;50.766;2.900;2022-07-29T02:44:17;101031.91;;;22.91;42.96
60854;BME280;48554;50.766;2.900;2022-07-29T02:46:45;101029.19;;;22.91;42.82
60854;BME280;48554;50.766;2.900;2022-07-29T02:49:10;101029.19;;;22.91;42.86
60854;BME280;48554;50.766;2.900;2022-07-29T02:51:51;101028.66;;;22.89;42.95
60854;BME280;48554;50.766;2.900;2022-07-29T02:54:25;101025.69;;;22.91;43.10
60854;BME280;48554;50.766;2.900;2022-07-29T02:56:47;101025.41;;;22.87;43.18
60854;BME280;48554;50.766;2.900;2022-07-29T02:59:10;101021.09;;;22.86;43.14
60854;BME280;48554;50.766;2.900;2022-07-29T03:01:32;101025.41;;;22.87;43.17
60854;BME280;48554;50.766;2.900;2022-07-29T03:03:55;101023.00;;;22.85;43.18
60854;BME280;48554;50.766;2.900;2022-07-29T03:06:17;101035.41;;;22.86;43.24
60854;BME280;48554;50.766;2.900;2022-07-29T03:08:37;101015.16;;;22.84;43.20
60854;BME280;48554;50.766;2.900;2022-07-29T03:10:59;101022.22;;;22.85;43.16
60854;BME280;48554;50.766;2.900;2022-07-29T03:13:21;101025.41;;;22.87;43.20
60854;BME280;48554;50.766;2.900;2022-07-29T03:15:45;101027.06;;;22.88;43.11
60854;BME280;48554;50.766;2.900;2022-07-29T03:18:06;101023.28;;;22.84;43.27
60854;BME280;48554;50.766;2.900;2022-07-29T03:20:26;101017.34;;;22.82;43.13
60854;BME280;48554;50.766;2.900;2022-07-29T03:22:47;101018.97;;;22.83;43.06
60854;BME280;48554;50.766;2.900;2022-07-29T03:25:09;101031.38;;;22.84;43.12
60854;BME280;48554;50.766;2.900;2022-07-29T03:27:29;101037.06;;;22.82;43.20
60854;BME280;48554;50.766;2.900;2022-07-29T03:29:49;101029.50;;;22.79;43.22
60854;BME280;48554;50.766;2.900;2022-07-29T03:32:10;101048.16;;;22.81;43.31
60854;BME280;48554;50.766;2.900;2022-07-29T03:34:30;101047.34;;;22.80;43.31
60854;BME280;48554;50.766;2.900;2022-07-29T03:36:50;101046.50;;;22.80;43.46
60854;BME280;48554;50.766;2.900;2022-07-29T03:39:12;101043.53;;;22.81;43.37
60854;BME280;48554;50.766;2.900;2022-07-29T03:41:36;101051.91;;;22.80;42.94
60854;BME280;48554;50.766;2.900;2022-07-29T03:43:58;101045.72;;;22.79;43.31
60854;BME280;48554;50.766;2.900;2022-07-29T03:46:20;101047.38;;;22.75;43.69
60854;BME280;48554;50.766;2.900;2022-07-29T03:48:46;101050.88;;;22.76;43.45
60854;BME280;48554;50.766;2.900;2022-07-29T03:51:08;101047.63;;;22.74;43.36
60854;BME280;48554;50.766;2.900;2022-07-29T03:53:29;101049.22;;;22.75;43.32
60854;BME280;48554;50.766;2.900;2022-07-29T03:55:53;101049.53;;;22.73;43.56
60854;BME280;48554;50.766;2.900;2022-07-29T03:58:14;101048.44;;;22.74;43.54
60854;BME280;48554;50.766;2.900;2022-07-29T04:00:36;101043.03;;;22.74;43.40
60854;BME280;48554;50.766;2.900;2022-07-29T04:02:57;101038.75;;;22.68;43.71
60854;BME280;48554;50.766;2.900;2022-07-29T04:05:18;101047.34;;;22.70;43.66
60854;BME280;48554;50.766;2.900;2022-07-29T04:07:39;101044.94;;;22.69;43.78
60854;BME280;48554;50.766;2.900;2022-07-29T04:09:59;101046.56;;;22.70;43.58
60854;BME280;48554;50.766;2.900;2022-07-29T04:12:19;101052.53;;;22.61;43.78
60854;BME280;48554;50.766;2.900;2022-07-29T04:14:39;101061.16;;;22.63;43.83
60854;BME280;48554;50.766;2.900;2022-07-29T04:17:01;101057.38;;;22.59;43.95
60854;BME280;48554;50.766;2.900;2022-07-29T04:19:21;101052.00;;;22.59;43.66
60854;BME280;48554;50.766;2.900;2022-07-29T04:21:42;101050.38;;;22.58;43.66
60854;BME280;48554;50.766;2.900;2022-07-29T04:24:02;101050.38;;;22.58;43.91
60854;BME280;48554;50.766;2.900;2022-07-29T04:26:22;101059.53;;;22.57;43.68
60854;BME280;48554;50.766;2.900;2022-07-29T04:28:43;101054.94;;;22.58;43.79
60854;BME280;48554;50.766;2.900;2022-07-29T04:31:03;101056.31;;;22.55;44.11
60854;BME280;48554;50.766;2.900;2022-07-29T04:33:23;101053.09;;;22.53;43.91
60854;BME280;48554;50.766;2.900;2022-07-29T04:35:44;101068.19;;;22.54;44.12
60854;BME280;48554;50.766;2.900;2022-07-29T04:38:05;101062.25;;;22.52;43.95
60854;BME280;48554;50.766;2.900;2022-07-29T04:40:25;101064.69;;;22.54;43.92
60854;BME280;48554;50.766;2.900;2022-07-29T04:42:46;101069.56;;;22.52;44.01
60854;BME280;48554;50.766;2.900;2022-07-29T04:45:07;101069.84;;;22.45;44.19
60854;BME280;48554;50.766;2.900;2022-07-29T04:47:27;101072.28;;;22.47;44.14
60854;BME280;48554;50.766;2.900;2022-07-29T04:49:47;101070.63;;;22.46;44.14
60854;BME280;48554;50.766;2.900;2022-07-29T04:52:07;101068.22;;;22.49;44.07
60854;BME280;48554;50.766;2.900;2022-07-29T04:54:28;101069.81;;;22.50;44.01
60854;BME280;48554;50.766;2.900;2022-07-29T04:56:48;101075.78;;;22.47;44.15
60854;BME280;48554;50.766;2.900;2022-07-29T04:59:08;101072.00;;;22.43;44.17
60854;BME280;48554;50.766;2.900;2022-07-29T05:01:28;101079.00;;;22.49;44.30
60854;BME280;48554;50.766;2.900;2022-07-29T05:03:49;101081.16;;;22.52;44.25
60854;BME280;48554;50.766;2.900;2022-07-29T05:06:09;101078.47;;;22.52;44.08
60854;BME280;48554;50.766;2.900;2022-07-29T05:08:29;101073.06;;;22.52;44.14
60854;BME280;48554;50.766;2.900;2022-07-29T05:10:49;101081.44;;;22.51;44.27
60854;BME280;48554;50.766;2.900;2022-07-29T05:13:10;101081.44;;;22.51;44.21
60854;BME280;48554;50.766;2.900;2022-07-29T05:15:30;101077.66;;;22.52;43.96
60854;BME280;48554;50.766;2.900;2022-07-29T05:17:50;101082.25;;;22.56;44.00
60854;BME280;48554;50.766;2.900;2022-07-29T05:20:10;101089.25;;;22.57;44.17
60854;BME280;48554;50.766;2.900;2022-07-29T05:22:32;101099.00;;;22.58;43.99
60854;BME280;48554;50.766;2.900;2022-07-29T05:24:52;101088.19;;;22.58;43.95
60854;BME280;48554;50.766;2.900;2022-07-29T05:27:13;101091.41;;;22.60;43.93
60854;BME280;48554;50.766;2.900;2022-07-29T05:29:33;101096.53;;;22.62;43.94
60854;BME280;48554;50.766;2.900;2022-07-29T05:31:53;101095.19;;;22.59;44.37
60854;BME280;48554;50.766;2.900;2022-07-29T05:34:14;101090.34;;;22.61;44.12
60854;BME280;48554;50.766;2.900;2022-07-29T05:36:34;101104.91;;;22.65;44.09
60854;BME280;48554;50.766;2.900;2022-07-29T05:38:54;101104.38;;;22.63;44.13
60854;BME280;48554;50.766;2.900;2022-07-29T05:41:14;101102.75;;;22.62;44.27
60854;BME280;48554;50.766;2.900;2022-07-29T05:43:34;101107.34;;;22.62;44.29
60854;BME280;48554;50.766;2.900;2022-07-29T05:45:55;101113.53;;;22.68;45.26
60854;BME280;48554;50.766;2.900;2022-07-29T05:48:16;101111.66;;;22.68;44.75
60854;BME280;48554;50.766;2.900;2022-07-29T05:50:36;101114.38;;;22.68;45.39
60854;BME280;48554;50.766;2.900;2022-07-29T05:52:56;101117.59;;;22.70;45.42
60854;BME280;48554;50.766;2.900;2022-07-29T05:55:17;101121.13;;;22.71;45.69
60854;BME280;48554;50.766;2.900;2022-07-29T05:57:37;101127.06;;;22.73;46.14
60854;BME280;48554;50.766;2.900;2022-07-29T05:59:57;101124.88;;;22.75;45.98
60854;BME280;48554;50.766;2.900;2022-07-29T06:02:18;101113.25;;;22.74;46.23
60854;BME280;48554;50.766;2.900;2022-07-29T06:04:38;101116.25;;;22.73;46.67
60854;BME280;48554;50.766;2.900;2022-07-29T06:06:59;101131.91;;;22.76;46.58
60854;BME280;48554;50.766;2.900;2022-07-29T06:09:19;101125.69;;;22.75;47.00
60854;BME280;48554;50.766;2.900;2022-07-29T06:11:39;101122.16;;;22.75;46.76
60854;BME280;48554;50.766;2.900;2022-07-29T06:13:59;101126.75;;;22.74;47.20
60854;BME280;48554;50.766;2.900;2022-07-29T06:16:20;101124.59;;;22.76;47.33
60854;BME280;48554;50.766;2.900;2022-07-29T06:18:40;101121.09;;;22.76;47.14
60854;BME280;48554;50.766;2.900;2022-07-29T06:21:00;101129.47;;;22.74;47.24
60854;BME280;48554;50.766;2.900;2022-07-29T06:23:20;101134.31;;;22.77;46.96
60854;BME280;48554;50.766;2.900;2022-07-29T06:25:41;101124.88;;;22.75;46.83
60854;BME280;48554;50.766;2.900;2022-07-29T06:28:01;101132.72;;;22.76;46.83
60854;BME280;48554;50.766;2.900;2022-07-29T06:30:21;101130.28;;;22.75;46.79
60854;BME280;48554;50.766;2.900;2022-07-29T06:32:41;101121.38;;;22.74;46.39
60854;BME280;48554;50.766;2.900;2022-07-29T06:35:02;101124.88;;;22.75;46.69
60854;BME280;48554;50.766;2.900;2022-07-29T06:37:22;101124.88;;;22.75;46.73
60854;BME280;48554;50.766;2.900;2022-07-29T06:39:42;101124.88;;;22.75;46.63
60854;BME280;48554;50.766;2.900;2022-07-29T06:42:06;101125.69;;;22.75;46.57
60854;BME280;48554;50.766;2.900;2022-07-29T06:44:26;101132.72;;;22.76;46.63
60854;BME280;48554;50.766;2.900;2022-07-29T06:46:47;101136.75;;;22.74;46.82
60854;BME280;48554;50.766;2.900;2022-07-29T06:49:07;101134.59;;;22.76;46.33
60854;BME280;48554;50.766;2.900;2022-07-29T06:51:27;101138.66;;;22.73;46.81
60854;BME280;48554;50.766;2.900;2022-07-29T06:53:48;101138.38;;;22.70;46.61
60854;BME280;48554;50.766;2.900;2022-07-29T06:56:09;101131.63;;;22.72;46.64
60854;BME280;48554;50.766;2.900;2022-07-29T06:58:29;101142.72;;;22.76;46.32
60854;BME280;48554;50.766;2.900;2022-07-29T07:00:49;101140.00;;;22.76;46.26
60854;BME280;48554;50.766;2.900;2022-07-29T07:03:10;101137.84;;;22.78;46.32
60854;BME280;48554;50.766;2.900;2022-07-29T07:05:31;101143.75;;;22.80;46.05
60854;BME280;48554;50.766;2.900;2022-07-29T07:07:51;101149.47;;;22.78;46.32
60854;BME280;48554;50.766;2.900;2022-07-29T07:10:11;101149.16;;;22.80;46.24
60854;BME280;48554;50.766;2.900;2022-07-29T07:12:31;101154.31;;;22.81;46.09
60854;BME280;48554;50.766;2.900;2022-07-29T07:14:52;101152.41;;;22.82;46.14
60854;BME280;48554;50.766;2.900;2022-07-29T07:17:12;101154.03;;;22.83;46.23
60854;BME280;48554;50.766;2.900;2022-07-29T07:19:32;101151.59;;;22.81;46.21
60854;BME280;48554;50.766;2.900;2022-07-29T07:21:53;101158.66;;;22.82;46.05
60854;BME280;48554;50.766;2.900;2022-07-29T07:24:13;101159.44;;;22.83;45.94
60854;BME280;48554;50.766;2.900;2022-07-29T07:26:33;101164.84;;;22.83;45.65
60854;BME280;48554;50.766;2.900;2022-07-29T07:28:53;101159.44;;;22.83;46.01
60854;BME280;48554;50.766;2.900;2022-07-29T07:31:14;101156.22;;;22.81;46.19
60854;BME280;48554;50.766;2.900;2022-07-29T07:33:34;101163.22;;;22.82;46.02
60854;BME280;48554;50.766;2.900;2022-07-29T07:35:54;101161.59;;;22.81;46.17
60854;BME280;48554;50.766;2.900;2022-07-29T07:38:14;101164.84;;;22.83;46.09
60854;BME280;48554;50.766;2.900;2022-07-29T07:40:35;101164.31;;;22.86;45.81
60854;BME280;48554;50.766;2.900;2022-07-29T07:42:55;101162.94;;;22.89;45.99
60854;BME280;48554;50.766;2.900;2022-07-29T07:45:15;101161.59;;;22.91;45.76
60854;BME280;48554;50.766;2.900;2022-07-29T07:47:37;101158.63;;;22.93;45.73
60854;BME280;48554;50.766;2.900;2022-07-29T07:49:57;101164.28;;;22.96;45.59
60854;BME280;48554;50.766;2.900;2022-07-29T07:52:19;101161.56;;;22.96;45.67
60854;BME280;48554;50.766;2.900;2022-07-29T07:54:40;101164.84;;;22.98;45.55
60854;BME280;48554;50.766;2.900;2022-07-29T07:57:00;101164.84;;;22.98;45.53
60854;BME280;48554;50.766;2.900;2022-07-29T07:59:20;101162.69;;;23.00;45.36
60854;BME280;48554;50.766;2.900;2022-07-29T08:01:41;101159.44;;;23.03;45.17
60854;BME280;48554;50.766;2.900;2022-07-29T08:04:01;101156.72;;;23.03;45.15
60854;BME280;48554;50.766;2.900;2022-07-29T08:06:21;101159.97;;;23.05;45.02
60854;BME280;48554;50.766;2.900;2022-07-29T08:08:41;101156.72;;;23.08;45.06
60854;BME280;48554;50.766;2.900;2022-07-29T08:11:02;101159.94;;;23.11;45.20
60854;BME280;48554;50.766;2.900;2022-07-29T08:13:26;101161.56;;;23.12;45.18
60854;BME280;48554;50.766;2.900;2022-07-29T08:15:46;101166.97;;;23.12;45.08
60854;BME280;48554;50.766;2.900;2022-07-29T08:18:07;101165.34;;;23.11;45.15
60854;BME280;48554;50.766;2.900;2022-07-29T08:20:27;101170.19;;;23.14;44.75
60854;BME280;48554;50.766;2.900;2022-07-29T08:22:48;101168.06;;;23.11;44.98
60854;BME280;48554;50.766;2.900;2022-07-29T08:25:08;101165.34;;;23.11;44.85
60854;BME280;48554;50.766;2.900;2022-07-29T08:27:28;101169.66;;;23.12;45.00
60854;BME280;48554;50.766;2.900;2022-07-29T08:29:49;101176.16;;;23.11;44.80
60854;BME280;48554;50.766;2.900;2022-07-29T08:32:09;101174.00;;;23.13;45.14
60854;BME280;48554;50.766;2.900;2022-07-29T08:34:29;101176.16;;;23.11;44.89
60854;BME280;48554;50.766;2.900;2022-07-29T08:36:50;101171.56;;;23.11;45.10
60854;BME280;48554;50.766;2.900;2022-07-29T08:39:10;101169.16;;;23.10;44.94
60854;BME280;48554;50.766;2.900;2022-07-29T08:41:30;101172.38;;;23.12;44.71
60854;BME280;48554;50.766;2.900;2022-07-29T08:43:51;101179.16;;;23.14;44.75
60854;BME280;48554;50.766;2.900;2022-07-29T08:46:11;101181.00;;;23.14;44.95
60854;BME280;48554;50.766;2.900;2022-07-29T08:48:32;101185.34;;;23.15;44.79
60854;BME280;48554;50.766;2.900;2022-07-29T08:50:55;101182.34;;;23.16;44.92
60854;BME280;48554;50.766;2.900;2022-07-29T08:53:17;101183.69;;;23.19;44.98
60854;BME280;48554;50.766;2.900;2022-07-29T08:55:46;101178.28;;;23.19;44.72
60854;BME280;48554;50.766;2.900;2022-07-29T08:58:06;101189.38;;;23.22;44.85
60854;BME280;48554;50.766;2.900;2022-07-29T09:00:27;101172.38;;;23.22;44.84
60854;BME280;48554;50.766;2.900;2022-07-29T09:02:51;101180.19;;;23.23;44.75
60854;BME280;48554;50.766;2.900;2022-07-29T09:05:16;101174.50;;;23.25;44.79
60854;BME280;48554;50.766;2.900;2022-07-29T09:07:38;101184.22;;;23.26;44.66
60854;BME280;48554;50.766;2.900;2022-07-29T09:09:59;101184.75;;;23.28;44.71
60854;BME280;48554;50.766;2.900;2022-07-29T09:12:20;101178.28;;;23.29;44.72
60854;BME280;48554;50.766;2.900;2022-07-29T09:14:41;101184.19;;;23.31;44.60
60854;BME280;48554;50.766;2.900;2022-07-29T09:17:01;101189.34;;;23.33;44.63
60854;BME280;48554;50.766;2.900;2022-07-29T09:19:25;101177.16;;;23.35;44.36
60854;BME280;48554;50.766;2.900;2022-07-29T09:21:46;101177.16;;;23.35;44.54
60854;BME280;48554;50.766;2.900;2022-07-29T09:24:13;101175.00;;;23.37;44.28
60854;BME280;48554;50.766;2.900;2022-07-29T09:26:36;101182.84;;;23.39;44.54
60854;BME280;48554;50.766;2.900;2022-07-29T09:28:57;101183.09;;;23.42;44.55
60854;BME280;48554;50.766;2.900;2022-07-29T09:31:35;101177.16;;;23.40;44.29
60854;BME280;48554;50.766;2.900;2022-07-29T09:33:57;101176.59;;;23.43;44.48
60854;BME280;48554;50.766;2.900;2022-07-29T09:36:18;101184.69;;;23.43;44.27
60854;BME280;48554;50.766;2.900;2022-07-29T09:38:38;101183.63;;;23.44;44.25
60854;BME280;48554;50.766;2.900;2022-07-29T09:41:00;101177.13;;;23.45;44.51
60854;BME280;48554;50.766;2.900;2022-07-29T09:43:20;101177.94;;;23.46;44.13
60854;BME280;48554;50.766;2.900;2022-07-29T09:45:41;101182.00;;;23.48;44.35
60854;BME280;48554;50.766;2.900;2022-07-29T09:48:21;101190.34;;;23.52;44.33
60854;BME280;48554;50.766;2.900;2022-07-29T09:50:43;101184.13;;;23.52;44.14
60854;BME280;48554;50.766;2.900;2022-07-29T09:53:04;101186.84;;;23.52;44.28
60854;BME280;48554;50.766;2.900;2022-07-29T09:55:24;101186.56;;;23.53;44.08
60854;BME280;48554;50.766;2.900;2022-07-29T09:57:45;101177.63;;;23.53;44.07
60854;BME280;48554;50.766;2.900;2022-07-29T10:00:08;101177.63;;;23.53;44.05
60854;BME280;48554;50.766;2.900;2022-07-29T10:02:31;101173.88;;;23.54;43.98
60854;BME280;48554;50.766;2.900;2022-07-29T10:04:51;101176.03;;;23.52;44.01
60854;BME280;48554;50.766;2.900;2022-07-29T10:07:12;101173.88;;;23.54;44.16
60854;BME280;48554;50.766;2.900;2022-07-29T10:09:33;101168.72;;;23.52;44.01
60854;BME280;48554;50.766;2.900;2022-07-29T10:12:07;101170.06;;;23.55;44.01
60854;BME280;48554;50.766;2.900;2022-07-29T10:14:30;101175.47;;;23.55;44.16
60854;BME280;48554;50.766;2.900;2022-07-29T10:16:50;101165.44;;;23.55;43.99
60854;BME280;48554;50.766;2.900;2022-07-29T10:19:12;101174.91;;;23.58;44.05
60854;BME280;48554;50.766;2.900;2022-07-29T10:21:32;101171.13;;;23.59;43.82
60854;BME280;48554;50.766;2.900;2022-07-29T10:23:53;101173.28;;;23.57;43.79
60854;BME280;48554;50.766;2.900;2022-07-29T10:26:14;101177.34;;;23.59;44.08
60854;BME280;48554;50.766;2.900;2022-07-29T10:28:35;101176.53;;;23.59;43.61
60854;BME280;48554;50.766;2.900;2022-07-29T10:31:02;101172.75;;;23.60;43.99
60854;BME280;48554;50.766;2.900;2022-07-29T10:33:41;101178.94;;;23.60;43.75
60854;BME280;48554;50.766;2.900;2022-07-29T10:38:44;101162.44;;;23.62;43.81
60854;BME280;48554;50.766;2.900;2022-07-29T10:41:16;101163.78;;;23.64;43.55
60854;BME280;48554;50.766;2.900;2022-07-29T10:43:42;101171.09;;;23.64;43.81
60854;BME280;48554;50.766;2.900;2022-07-29T10:46:04;101176.25;;;23.65;43.61
60854;BME280;48554;50.766;2.900;2022-07-29T10:48:25;101174.88;;;23.68;43.72
60854;BME280;48554;50.766;2.900;2022-07-29T10:50:54;101162.41;;;23.67;43.67
60854;BME280;48554;50.766;2.900;2022-07-29T10:53:14;101168.38;;;23.69;43.59
60854;BME280;48554;50.766;2.900;2022-07-29T10:55:37;101167.25;;;23.70;43.71
60854;BME280;48554;50.766;2.900;2022-07-29T10:58:21;101162.97;;;23.69;43.63
60854;BME280;48554;50.766;2.900;2022-07-29T11:00:42;101168.91;;;23.71;43.68
60854;BME280;48554;50.766;2.900;2022-07-29T11:03:02;101169.69;;;23.71;43.55
60854;BME280;48554;50.766;2.900;2022-07-29T11:05:22;101174.59;;;23.69;43.59
60854;BME280;48554;50.766;2.900;2022-07-29T11:10:34;101174.31;;;23.71;43.63
60854;BME280;48554;50.766;2.900;2022-07-29T11:12:54;101168.91;;;23.71;43.53
60854;BME280;48554;50.766;2.900;2022-07-29T11:15:20;101168.38;;;23.74;43.67
60854;BME280;48554;50.766;2.900;2022-07-29T11:20:50;101174.31;;;23.76;43.45
60854;BME280;48554;50.766;2.900;2022-07-29T11:23:29;101167.81;;;23.77;43.44
60854;BME280;48554;50.766;2.900;2022-07-29T11:26:19;101169.69;;;23.77;43.66
60854;BME280;48554;50.766;2.900;2022-07-29T11:31:38;101162.94;;;23.79;43.43
60854;BME280;48554;50.766;2.900;2022-07-29T11:39:27;101168.88;;;23.81;43.57
60854;BME280;48554;50.766;2.900;2022-07-29T11:41:48;101173.47;;;23.81;43.44
60854;BME280;48554;50.766;2.900;2022-07-29T11:44:08;101166.69;;;23.83;43.28
60854;BME280;48554;50.766;2.900;2022-07-29T11:46:48;101174.25;;;23.86;43.49
60854;BME280;48554;50.766;2.900;2022-07-29T11:49:08;101171.31;;;23.83;43.53
60854;BME280;48554;50.766;2.900;2022-07-29T11:51:29;101167.78;;;23.87;43.58
60854;BME280;48554;50.766;2.900;2022-07-29T11:53:50;101165.88;;;23.88;43.40
60854;BME280;48554;50.766;2.900;2022-07-29T11:56:12;101172.06;;;23.88;43.51
60854;BME280;48554;50.766;2.900;2022-07-29T11:58:33;101172.88;;;23.89;43.66
60854;BME280;48554;50.766;2.900;2022-07-29T12:00:54;101170.19;;;23.89;43.56
60854;BME280;48554;50.766;2.900;2022-07-29T12:03:24;101169.63;;;23.87;43.54
60854;BME280;48554;50.766;2.900;2022-07-29T12:05:45;101174.25;;;23.86;43.41
60854;BME280;48554;50.766;2.900;2022-07-29T12:10:31;101169.38;;;23.88;43.40
60854;BME280;48554;50.766;2.900;2022-07-29T12:12:51;101176.38;;;23.89;43.73
60854;BME280;48554;50.766;2.900;2022-07-29T12:15:17;101173.97;;;23.88;43.52
60854;BME280;48554;50.766;2.900;2022-07-29T12:17:37;101170.19;;;23.89;43.67
60854;BME280;48554;50.766;2.900;2022-07-29T12:20:00;101169.38;;;23.88;43.53
60854;BME280;48554;50.766;2.900;2022-07-29T12:22:27;101178.28;;;23.89;43.75
60854;BME280;48554;50.766;2.900;2022-07-29T12:24:47;101170.75;;;23.86;43.48
60854;BME280;48554;50.766;2.900;2022-07-29T12:27:07;101175.34;;;23.85;43.88
60854;BME280;48554;50.766;2.900;2022-07-29T12:29:28;101174.25;;;23.86;43.52
60854;BME280;48554;50.766;2.900;2022-07-29T12:31:52;101172.06;;;23.88;43.42
60854;BME280;48554;50.766;2.900;2022-07-29T12:34:15;101174.78;;;23.88;43.58
60854;BME280;48554;50.766;2.900;2022-07-29T12:36:35;101168.28;;;23.89;43.46
60854;BME280;48554;50.766;2.900;2022-07-29T12:38:56;101160.97;;;23.90;43.49
60854;BME280;48554;50.766;2.900;2022-07-29T12:41:16;101169.59;;;23.92;43.44
60854;BME280;48554;50.766;2.900;2022-07-29T12:43:36;101165.03;;;23.92;43.65
60854;BME280;48554;50.766;2.900;2022-07-29T12:45:57;101169.09;;;23.90;43.53
60854;BME280;48554;50.766;2.900;2022-07-29T12:48:18;101163.38;;;23.91;43.56
60854;BME280;48554;50.766;2.900;2022-07-29T12:50:58;101171.78;;;23.95;43.78